sensor_id;sensor_type;location;lat;lon;timestamp;pressure;altitude;pressure_sealevel;temperature;humidity
20394;BME280;10356;50.544;9.642;2023-12-20T00:01:23;98158.34;;;3.84;100.00
20394;BME280;10356;50.544;9.642;2023-12-20T00:03:50;98156.69;;;3.83;100.00
20394;BME280;10356;50.544;9.642;2023-12-20T00:06:16;98155.84;;;3.82;100.00
20394;BME280;10356;50.544;9.642;2023-12-20T00:08:43;98159.94;;;3.86;100.00
20394;BME280;10356;50.544;9.642;2023-12-20T00:11:10;98158.28;;;3.85;100.00
20394;BME280;10356;50.544;9.642;2023-12-20T00:13:38;98164.09;;;3.89;100.00
20394;BME280;10356;50.544;9.642;2023-12-20T00:16:04;98151.06;;;3.92;100.00
20394;BME280;10356;50.544;9.642;2023-12-20T00:18:31;98149.47;;;3.89;100.00
20394;BME280;10356;50.544;9.642;2023-12-20T00:20:57;98143.06;;;3.96;100.00
20394;BME280;10356;50.544;9.642;2023-12-20T00:23:24;98148.97;;;3.98;100.00
20394;BME280;10356;50.544;9.642;2023-12-20T00:25:50;98136.94;;;3.99;100.00
20394;BME280;10356;50.544;9.642;2023-12-20T00:28:17;98141.56;;;3.92;100.00
20394;BME280;10356;50.544;9.642;2023-12-20T00:30:45;98142.09;;;3.99;100.00
20394;BME280;10356;50.544;9.642;2023-12-20T00:33:11;98141.19;;;4.00;100.00
20394;BME280;10356;50.544;9.642;2023-12-20T00:35:37;98142.75;;;4.02;100.00
20394;BME280;10356;50.544;9.642;2023-12-20T00:38:04;98131.13;;;3.95;100.00
20394;BME280;10356;50.544;9.642;2023-12-20T00:40:32;98127.56;;;3.98;100.00
20394;BME280;10356;50.544;9.642;2023-12-20T00:42:59;98135.84;;;4.03;100.00
20394;BME280;10356;50.544;9.642;2023-12-20T00:45:25;98133.03;;;4.07;100.00
20394;BME280;10356;50.544;9.642;2023-12-20T00:47:53;98134.78;;;4.07;100.00
20394;BME280;10356;50.544;9.642;2023-12-20T00:50:20;98134.97;;;4.04;100.00
20394;BME280;10356;50.544;9.642;2023-12-20T00:52:47;98129.09;;;4.00;100.00
20394;BME280;10356;50.544;9.642;2023-12-20T00:55:13;98130.59;;;4.04;100.00
20394;BME280;10356;50.544;9.642;2023-12-20T00:57:40;98125.72;;;4.00;100.00
20394;BME280;10356;50.544;9.642;2023-12-20T01:00:07;98121.66;;;4.11;100.00
20394;BME280;10356;50.544;9.642;2023-12-20T01:02:34;98123.94;;;4.00;100.00
20394;BME280;10356;50.544;9.642;2023-12-20T01:05:03;98121.22;;;4.03;100.00
20394;BME280;10356;50.544;9.642;2023-12-20T01:07:29;98126.28;;;4.05;100.00
20394;BME280;10356;50.544;9.642;2023-12-20T01:09:55;98124.56;;;4.05;100.00
20394;BME280;10356;50.544;9.642;2023-12-20T01:12:21;98122.31;;;3.99;100.00
20394;BME280;10356;50.544;9.642;2023-12-20T01:14:48;98124.97;;;3.98;100.00
20394;BME280;10356;50.544;9.642;2023-12-20T01:17:14;98123.06;;;4.01;100.00
20394;BME280;10356;50.544;9.642;2023-12-20T01:19:41;98115.47;;;3.98;100.00
20394;BME280;10356;50.544;9.642;2023-12-20T01:22:09;98107.91;;;3.95;100.00
20394;BME280;10356;50.544;9.642;2023-12-20T01:24:35;98113.97;;;3.94;100.00
20394;BME280;10356;50.544;9.642;2023-12-20T01:27:02;98118.78;;;4.00;100.00
20394;BME280;10356;50.544;9.642;2023-12-20T01:29:28;98110.31;;;3.98;100.00
20394;BME280;10356;50.544;9.642;2023-12-20T01:31:55;98113.81;;;3.97;100.00
20394;BME280;10356;50.544;9.642;2023-12-20T01:34:21;98110.41;;;3.97;100.00
20394;BME280;10356;50.544;9.642;2023-12-20T01:36:47;98099.25;;;3.96;100.00
20394;BME280;10356;50.544;9.642;2023-12-20T01:39:15;98096.69;;;3.96;100.00
20394;BME280;10356;50.544;9.642;2023-12-20T01:41:42;98093.19;;;3.97;100.00
20394;BME280;10356;50.544;9.642;2023-12-20T01:44:08;98096.34;;;4.02;100.00
20394;BME280;10356;50.544;9.642;2023-12-20T01:46:35;98091.38;;;3.99;100.00
20394;BME280;10356;50.544;9.642;2023-12-20T01:49:02;98093.03;;;4.00;100.00
20394;BME280;10356;50.544;9.642;2023-12-20T01:51:28;98097.38;;;4.00;100.00
20394;BME280;10356;50.544;9.642;2023-12-20T01:53:56;98087.72;;;4.03;100.00
20394;BME280;10356;50.544;9.642;2023-12-20T01:56:25;98087.53;;;4.06;100.00
20394;BME280;10356;50.544;9.642;2023-12-20T01:58:53;98095.28;;;4.06;100.00
20394;BME280;10356;50.544;9.642;2023-12-20T02:01:19;98097.69;;;4.09;100.00
20394;BME280;10356;50.544;9.642;2023-12-20T02:03:46;98101.34;;;4.05;100.00
20394;BME280;10356;50.544;9.642;2023-12-20T02:06:13;98090.38;;;4.02;100.00
20394;BME280;10356;50.544;9.642;2023-12-20T02:08:40;98092.88;;;4.03;100.00
20394;BME280;10356;50.544;9.642;2023-12-20T02:11:06;98090.44;;;4.00;100.00
20394;BME280;10356;50.544;9.642;2023-12-20T02:13:34;98084.53;;;3.98;100.00
20394;BME280;10356;50.544;9.642;2023-12-20T02:16:00;98086.03;;;4.02;100.00
20394;BME280;10356;50.544;9.642;2023-12-20T02:18:27;98088.28;;;4.08;100.00
20394;BME280;10356;50.544;9.642;2023-12-20T02:20:54;98085.72;;;4.08;100.00
20394;BME280;10356;50.544;9.642;2023-12-20T02:23:23;98087.38;;;4.09;100.00
20394;BME280;10356;50.544;9.642;2023-12-20T02:25:49;98093.53;;;4.07;100.00
20394;BME280;10356;50.544;9.642;2023-12-20T02:28:15;98091.47;;;4.13;100.00
20394;BME280;10356;50.544;9.642;2023-12-20T02:30:42;98084.38;;;4.17;100.00
20394;BME280;10356;50.544;9.642;2023-12-20T02:33:10;98091.53;;;4.28;100.00
20394;BME280;10356;50.544;9.642;2023-12-20T02:35:38;98078.31;;;4.34;100.00
20394;BME280;10356;50.544;9.642;2023-12-20T02:38:04;98083.06;;;4.25;100.00
20394;BME280;10356;50.544;9.642;2023-12-20T02:40:32;98070.56;;;4.34;100.00
20394;BME280;10356;50.544;9.642;2023-12-20T02:42:59;98065.41;;;4.34;100.00
20394;BME280;10356;50.544;9.642;2023-12-20T02:45:26;98064.88;;;4.43;100.00
20394;BME280;10356;50.544;9.642;2023-12-20T02:47:52;98058.75;;;4.45;100.00
20394;BME280;10356;50.544;9.642;2023-12-20T02:50:19;98054.66;;;4.41;100.00
20394;BME280;10356;50.544;9.642;2023-12-20T02:52:45;98063.41;;;4.39;100.00
20394;BME280;10356;50.544;9.642;2023-12-20T02:55:12;98055.41;;;4.43;100.00
20394;BME280;10356;50.544;9.642;2023-12-20T02:57:39;98068.22;;;4.45;100.00
20394;BME280;10356;50.544;9.642;2023-12-20T03:00:07;98062.66;;;4.52;100.00
20394;BME280;10356;50.544;9.642;2023-12-20T03:02:34;98060.41;;;4.46;100.00
20394;BME280;10356;50.544;9.642;2023-12-20T03:05:01;98055.16;;;4.48;100.00
20394;BME280;10356;50.544;9.642;2023-12-20T03:07:27;98052.41;;;4.51;100.00
20394;BME280;10356;50.544;9.642;2023-12-20T03:09:54;98062.56;;;4.54;100.00
20394;BME280;10356;50.544;9.642;2023-12-20T03:12:20;98056.41;;;4.56;100.00
20394;BME280;10356;50.544;9.642;2023-12-20T03:14:49;98064.44;;;4.66;100.00
20394;BME280;10356;50.544;9.642;2023-12-20T03:17:15;98074.84;;;4.64;100.00
20394;BME280;10356;50.544;9.642;2023-12-20T03:19:42;98072.44;;;4.61;100.00
20394;BME280;10356;50.544;9.642;2023-12-20T03:22:08;98067.38;;;4.60;100.00
20394;BME280;10356;50.544;9.642;2023-12-20T03:24:35;98063.69;;;4.64;100.00
20394;BME280;10356;50.544;9.642;2023-12-20T03:27:01;98072.19;;;4.66;100.00
20394;BME280;10356;50.544;9.642;2023-12-20T03:29:27;98072.19;;;4.66;100.00
20394;BME280;10356;50.544;9.642;2023-12-20T03:31:55;98068.88;;;4.64;100.00
20394;BME280;10356;50.544;9.642;2023-12-20T03:34:47;98061.22;;;4.62;100.00
20394;BME280;10356;50.544;9.642;2023-12-20T03:37:14;98078.84;;;4.70;100.00
20394;BME280;10356;50.544;9.642;2023-12-20T03:39:40;98071.84;;;4.72;100.00
20394;BME280;10356;50.544;9.642;2023-12-20T03:42:07;98070.00;;;4.74;100.00
20394;BME280;10356;50.544;9.642;2023-12-20T03:44:33;98075.50;;;4.68;100.00
20394;BME280;10356;50.544;9.642;2023-12-20T03:47:01;98066.50;;;4.75;100.00
20394;BME280;10356;50.544;9.642;2023-12-20T03:49:28;98071.66;;;4.75;100.00
20394;BME280;10356;50.544;9.642;2023-12-20T03:51:54;98063.00;;;4.76;100.00
20394;BME280;10356;50.544;9.642;2023-12-20T03:54:20;98080.75;;;4.66;100.00
20394;BME280;10356;50.544;9.642;2023-12-20T03:56:47;98079.19;;;4.64;100.00
20394;BME280;10356;50.544;9.642;2023-12-20T03:59:13;98071.53;;;4.62;100.00
20394;BME280;10356;50.544;9.642;2023-12-20T04:01:43;98075.31;;;4.71;100.00
20394;BME280;10356;50.544;9.642;2023-12-20T04:04:10;98080.66;;;4.68;100.00
20394;BME280;10356;50.544;9.642;2023-12-20T04:06:37;98085.25;;;4.63;100.00
20394;BME280;10356;50.544;9.642;2023-12-20T04:09:04;98083.94;;;4.56;100.00
20394;BME280;10356;50.544;9.642;2023-12-20T04:11:30;98081.91;;;4.61;100.00
20394;BME280;10356;50.544;9.642;2023-12-20T04:13:57;98083.00;;;4.57;100.00
20394;BME280;10356;50.544;9.642;2023-12-20T04:16:23;98088.25;;;4.55;100.00
20394;BME280;10356;50.544;9.642;2023-12-20T04:18:49;98084.38;;;4.48;100.00
20394;BME280;10356;50.544;9.642;2023-12-20T04:21:17;98090.19;;;4.52;100.00
20394;BME280;10356;50.544;9.642;2023-12-20T04:23:44;98088.91;;;4.59;100.00
20394;BME280;10356;50.544;9.642;2023-12-20T04:26:10;98099.63;;;4.67;100.00
20394;BME280;10356;50.544;9.642;2023-12-20T04:28:37;98097.97;;;4.66;100.00
20394;BME280;10356;50.544;9.642;2023-12-20T04:31:03;98092.63;;;4.69;100.00
20394;BME280;10356;50.544;9.642;2023-12-20T04:33:30;98088.31;;;4.69;100.00
20394;BME280;10356;50.544;9.642;2023-12-20T04:35:56;98089.50;;;4.64;100.00
20394;BME280;10356;50.544;9.642;2023-12-20T04:38:24;98090.75;;;4.57;100.00
20394;BME280;10356;50.544;9.642;2023-12-20T04:40:50;98096.34;;;4.49;100.00
20394;BME280;10356;50.544;9.642;2023-12-20T04:43:17;98094.34;;;4.39;100.00
20394;BME280;10356;50.544;9.642;2023-12-20T04:45:43;98088.78;;;4.31;100.00
20394;BME280;10356;50.544;9.642;2023-12-20T04:48:10;98096.53;;;4.31;100.00
20394;BME280;10356;50.544;9.642;2023-12-20T04:50:37;98093.94;;;4.15;100.00
20394;BME280;10356;50.544;9.642;2023-12-20T04:53:03;98105.66;;;4.20;100.00
20394;BME280;10356;50.544;9.642;2023-12-20T04:55:31;98104.34;;;4.13;100.00
20394;BME280;10356;50.544;9.642;2023-12-20T04:57:57;98107.84;;;4.12;100.00
20394;BME280;10356;50.544;9.642;2023-12-20T05:00:23;98110.81;;;4.20;100.00
20394;BME280;10356;50.544;9.642;2023-12-20T05:02:50;98117.56;;;4.23;100.00
20394;BME280;10356;50.544;9.642;2023-12-20T05:05:16;98121.81;;;4.24;100.00
20394;BME280;10356;50.544;9.642;2023-12-20T05:07:43;98122.31;;;4.15;100.00
20394;BME280;10356;50.544;9.642;2023-12-20T05:10:09;98129.19;;;4.14;100.00
20394;BME280;10356;50.544;9.642;2023-12-20T05:12:37;98136.28;;;4.11;100.00
20394;BME280;10356;50.544;9.642;2023-12-20T05:15:05;98135.28;;;4.13;100.00
20394;BME280;10356;50.544;9.642;2023-12-20T05:17:32;98141.94;;;4.17;100.00
20394;BME280;10356;50.544;9.642;2023-12-20T05:19:59;98146.19;;;4.18;100.00
20394;BME280;10356;50.544;9.642;2023-12-20T05:22:25;98134.31;;;4.16;100.00
20394;BME280;10356;50.544;9.642;2023-12-20T05:24:52;98138.09;;;4.24;100.00
20394;BME280;10356;50.544;9.642;2023-12-20T05:27:19;98138.72;;;4.30;100.00
20394;BME280;10356;50.544;9.642;2023-12-20T05:29:47;98128.72;;;4.23;100.00
20394;BME280;10356;50.544;9.642;2023-12-20T05:32:13;98129.94;;;4.16;100.00
20394;BME280;10356;50.544;9.642;2023-12-20T05:34:40;98142.28;;;4.11;100.00
20394;BME280;10356;50.544;9.642;2023-12-20T05:37:06;98155.06;;;3.97;100.00
20394;BME280;10356;50.544;9.642;2023-12-20T05:39:33;98162.19;;;3.92;100.00
20394;BME280;10356;50.544;9.642;2023-12-20T05:41:59;98172.66;;;3.89;100.00
20394;BME280;10356;50.544;9.642;2023-12-20T05:44:25;98171.16;;;3.85;100.00
20394;BME280;10356;50.544;9.642;2023-12-20T05:46:53;98171.69;;;3.92;100.00
20394;BME280;10356;50.544;9.642;2023-12-20T05:49:20;98170.84;;;3.91;100.00
20394;BME280;10356;50.544;9.642;2023-12-20T05:51:47;98164.38;;;4.00;100.00
20394;BME280;10356;50.544;9.642;2023-12-20T05:54:13;98171.38;;;3.98;100.00
20394;BME280;10356;50.544;9.642;2023-12-20T05:56:40;98162.88;;;3.96;100.00
20394;BME280;10356;50.544;9.642;2023-12-20T05:59:06;98164.94;;;3.89;100.00
20394;BME280;10356;50.544;9.642;2023-12-20T06:01:33;98167.53;;;3.89;100.00
20394;BME280;10356;50.544;9.642;2023-12-20T06:04:01;98183.13;;;3.86;100.00
20394;BME280;10356;50.544;9.642;2023-12-20T06:06:28;98178.25;;;3.97;100.00
20394;BME280;10356;50.544;9.642;2023-12-20T06:08:55;98178.84;;;4.02;100.00
20394;BME280;10356;50.544;9.642;2023-12-20T06:11:22;98177.19;;;4.01;100.00
20394;BME280;10356;50.544;9.642;2023-12-20T06:13:48;98179.25;;;3.95;100.00
20394;BME280;10356;50.544;9.642;2023-12-20T06:16:18;98176.53;;;3.98;100.00
20394;BME280;10356;50.544;9.642;2023-12-20T06:18:44;98178.41;;;3.94;100.00
20394;BME280;10356;50.544;9.642;2023-12-20T06:21:12;98179.16;;;3.96;100.00
20394;BME280;10356;50.544;9.642;2023-12-20T06:23:39;98183.53;;;3.79;100.00
20394;BME280;10356;50.544;9.642;2023-12-20T06:26:06;98187.09;;;3.76;100.00
20394;BME280;10356;50.544;9.642;2023-12-20T06:28:32;98194.91;;;3.75;100.00
20394;BME280;10356;50.544;9.642;2023-12-20T06:30:59;98192.47;;;3.72;100.00
20394;BME280;10356;50.544;9.642;2023-12-20T06:33:25;98193.47;;;3.69;100.00
20394;BME280;10356;50.544;9.642;2023-12-20T06:35:52;98193.16;;;3.58;100.00
20394;BME280;10356;50.544;9.642;2023-12-20T06:38:20;98198.94;;;3.46;100.00
20394;BME280;10356;50.544;9.642;2023-12-20T06:40:46;98198.41;;;3.39;100.00
20394;BME280;10356;50.544;9.642;2023-12-20T06:43:13;98199.41;;;3.37;100.00
20394;BME280;10356;50.544;9.642;2023-12-20T06:45:39;98193.88;;;3.45;100.00
20394;BME280;10356;50.544;9.642;2023-12-20T06:48:06;98195.59;;;3.44;100.00
20394;BME280;10356;50.544;9.642;2023-12-20T06:50:33;98209.78;;;3.53;100.00
20394;BME280;10356;50.544;9.642;2023-12-20T06:52:59;98208.31;;;3.64;100.00
20394;BME280;10356;50.544;9.642;2023-12-20T06:55:33;98210.31;;;3.59;100.00
20394;BME280;10356;50.544;9.642;2023-12-20T06:58:00;98203.47;;;3.58;100.00
20394;BME280;10356;50.544;9.642;2023-12-20T07:00:27;98209.78;;;3.53;100.00
20394;BME280;10356;50.544;9.642;2023-12-20T07:02:54;98206.53;;;3.49;100.00
20394;BME280;10356;50.544;9.642;2023-12-20T07:05:20;98206.28;;;3.54;100.00
20394;BME280;10356;50.544;9.642;2023-12-20T07:07:47;98209.09;;;3.49;100.00
20394;BME280;10356;50.544;9.642;2023-12-20T07:10:14;98194.91;;;3.58;100.00
20394;BME280;10356;50.544;9.642;2023-12-20T07:12:42;98198.50;;;3.55;100.00
20394;BME280;10356;50.544;9.642;2023-12-20T07:15:10;98199.78;;;3.47;100.00
20394;BME280;10356;50.544;9.642;2023-12-20T07:17:37;98190.44;;;3.44;100.00
20394;BME280;10356;50.544;9.642;2023-12-20T07:20:05;98210.38;;;3.40;100.00
20394;BME280;10356;50.544;9.642;2023-12-20T07:22:34;98207.81;;;3.40;100.00
20394;BME280;10356;50.544;9.642;2023-12-20T07:25:01;98216.81;;;3.49;100.00
20394;BME280;10356;50.544;9.642;2023-12-20T07:27:29;98219.84;;;3.40;100.00
20394;BME280;10356;50.544;9.642;2023-12-20T07:29:56;98215.53;;;3.40;100.00
20394;BME280;10356;50.544;9.642;2023-12-20T07:32:23;98217.56;;;3.34;100.00
20394;BME280;10356;50.544;9.642;2023-12-20T07:34:49;98216.69;;;3.35;100.00
20394;BME280;10356;50.544;9.642;2023-12-20T07:37:16;98221.66;;;3.38;100.00
20394;BME280;10356;50.544;9.642;2023-12-20T07:39:42;98222.63;;;3.35;100.00
20394;BME280;10356;50.544;9.642;2023-12-20T07:42:09;98219.91;;;3.38;100.00
20394;BME280;10356;50.544;9.642;2023-12-20T07:44:36;98217.88;;;3.45;100.00
20394;BME280;10356;50.544;9.642;2023-12-20T07:47:04;98221.34;;;3.44;100.00
20394;BME280;10356;50.544;9.642;2023-12-20T07:49:31;98223.84;;;3.46;100.00
20394;BME280;10356;50.544;9.642;2023-12-20T07:51:57;98224.56;;;3.49;100.00
20394;BME280;10356;50.544;9.642;2023-12-20T07:54:24;98221.09;;;3.66;100.00
20394;BME280;10356;50.544;9.642;2023-12-20T07:56:50;98226.97;;;3.69;100.00
20394;BME280;10356;50.544;9.642;2023-12-20T07:59:17;98240.59;;;3.71;100.00
20394;BME280;10356;50.544;9.642;2023-12-20T08:01:43;98245.44;;;3.77;100.00
20394;BME280;10356;50.544;9.642;2023-12-20T08:04:11;98234.22;;;3.78;100.00
20394;BME280;10356;50.544;9.642;2023-12-20T08:06:38;98237.28;;;3.69;100.00
20394;BME280;10356;50.544;9.642;2023-12-20T08:09:04;98238.69;;;3.58;100.00
20394;BME280;10356;50.544;9.642;2023-12-20T08:11:31;98245.22;;;3.48;100.00
20394;BME280;10356;50.544;9.642;2023-12-20T08:13:57;98254.06;;;3.42;100.00
20394;BME280;10356;50.544;9.642;2023-12-20T08:16:24;98241.81;;;3.47;100.00
20394;BME280;10356;50.544;9.642;2023-12-20T08:18:50;98255.75;;;3.43;100.00
20394;BME280;10356;50.544;9.642;2023-12-20T08:21:18;98256.97;;;3.53;100.00
20394;BME280;10356;50.544;9.642;2023-12-20T08:23:47;98259.69;;;3.50;100.00
20394;BME280;10356;50.544;9.642;2023-12-20T08:26:18;98257.19;;;3.66;100.00
20394;BME280;10356;50.544;9.642;2023-12-20T08:28:45;98260.47;;;3.69;100.00
20394;BME280;10356;50.544;9.642;2023-12-20T08:31:13;98252.78;;;3.68;100.00
20394;BME280;10356;50.544;9.642;2023-12-20T08:33:40;98263.34;;;3.63;100.00
20394;BME280;10356;50.544;9.642;2023-12-20T08:36:08;98259.53;;;3.70;100.00
20394;BME280;10356;50.544;9.642;2023-12-20T08:38:36;98260.50;;;3.68;100.00
20394;BME280;10356;50.544;9.642;2023-12-20T08:41:03;98256.88;;;3.72;100.00
20394;BME280;10356;50.544;9.642;2023-12-20T08:43:30;98255.75;;;3.77;100.00
20394;BME280;10356;50.544;9.642;2023-12-20T08:45:57;98259.22;;;3.76;100.00
20394;BME280;10356;50.544;9.642;2023-12-20T08:48:23;98273.25;;;3.88;100.00
20394;BME280;10356;50.544;9.642;2023-12-20T08:50:50;98265.91;;;3.80;100.00
20394;BME280;10356;50.544;9.642;2023-12-20T08:53:17;98262.88;;;3.72;100.00
20394;BME280;10356;50.544;9.642;2023-12-20T08:55:45;98273.84;;;3.76;100.00
20394;BME280;10356;50.544;9.642;2023-12-20T08:58:11;98269.09;;;3.85;100.00
20394;BME280;10356;50.544;9.642;2023-12-20T09:00:38;98268.09;;;3.88;100.00
20394;BME280;10356;50.544;9.642;2023-12-20T09:03:05;98259.91;;;3.97;100.00
20394;BME280;10356;50.544;9.642;2023-12-20T09:05:31;98258.16;;;3.97;100.00
20394;BME280;10356;50.544;9.642;2023-12-20T09:07:58;98254.81;;;3.95;100.00
20394;BME280;10356;50.544;9.642;2023-12-20T09:10:24;98257.19;;;4.00;100.00
20394;BME280;10356;50.544;9.642;2023-12-20T09:12:53;98260.88;;;3.94;100.00
20394;BME280;10356;50.544;9.642;2023-12-20T09:15:21;98263.13;;;4.00;100.00
20394;BME280;10356;50.544;9.642;2023-12-20T09:17:48;98261.84;;;4.09;100.00
20394;BME280;10356;50.544;9.642;2023-12-20T09:20:15;98262.72;;;4.25;100.00
20394;BME280;10356;50.544;9.642;2023-12-20T09:22:41;98260.22;;;4.23;100.00
20394;BME280;10356;50.544;9.642;2023-12-20T09:25:09;98251.84;;;4.36;100.00
20394;BME280;10356;50.544;9.642;2023-12-20T09:27:36;98251.69;;;4.39;100.00
20394;BME280;10356;50.544;9.642;2023-12-20T09:30:05;98248.63;;;4.48;100.00
20394;BME280;10356;50.544;9.642;2023-12-20T09:32:32;98245.88;;;4.51;100.00
20394;BME280;10356;50.544;9.642;2023-12-20T09:34:58;98244.22;;;4.50;100.00
20394;BME280;10356;50.544;9.642;2023-12-20T09:37:26;98251.78;;;4.53;100.00
20394;BME280;10356;50.544;9.642;2023-12-20T09:39:53;98255.09;;;4.55;100.00
20394;BME280;10356;50.544;9.642;2023-12-20T09:42:25;98254.78;;;4.61;100.00
20394;BME280;10356;50.544;9.642;2023-12-20T09:44:53;98255.38;;;4.66;100.00
20394;BME280;10356;50.544;9.642;2023-12-20T09:47:23;98251.13;;;4.65;100.00
20394;BME280;10356;50.544;9.642;2023-12-20T09:49:50;98260.63;;;4.80;100.00
20394;BME280;10356;50.544;9.642;2023-12-20T09:52:18;98261.81;;;4.90;100.00
20394;BME280;10356;50.544;9.642;2023-12-20T09:54:45;98254.63;;;4.95;100.00
20394;BME280;10356;50.544;9.642;2023-12-20T09:57:13;98259.78;;;4.95;100.00
20394;BME280;10356;50.544;9.642;2023-12-20T09:59:40;98247.81;;;4.94;100.00
20394;BME280;10356;50.544;9.642;2023-12-20T10:02:11;98254.47;;;4.98;100.00
20394;BME280;10356;50.544;9.642;2023-12-20T10:04:46;98249.13;;;5.01;100.00
20394;BME280;10356;50.544;9.642;2023-12-20T10:07:13;98245.78;;;4.99;100.00
20394;BME280;10356;50.544;9.642;2023-12-20T10:09:40;98241.06;;;4.91;100.00
20394;BME280;10356;50.544;9.642;2023-12-20T10:12:08;98244.47;;;4.92;100.00
20394;BME280;10356;50.544;9.642;2023-12-20T10:14:34;98233.31;;;4.91;100.00
20394;BME280;10356;50.544;9.642;2023-12-20T10:17:04;98237.81;;;5.03;100.00
20394;BME280;10356;50.544;9.642;2023-12-20T10:19:31;98233.72;;;4.99;100.00
20394;BME280;10356;50.544;9.642;2023-12-20T10:21:59;98225.31;;;4.96;100.00
20394;BME280;10356;50.544;9.642;2023-12-20T10:24:28;98214.47;;;5.05;100.00
20394;BME280;10356;50.544;9.642;2023-12-20T10:27:01;98211.97;;;5.03;99.98
20394;BME280;10356;50.544;9.642;2023-12-20T10:29:31;98207.41;;;5.08;100.00
20394;BME280;10356;50.544;9.642;2023-12-20T10:31:58;98204.22;;;5.19;99.38
20394;BME280;10356;50.544;9.642;2023-12-20T10:34:24;98203.53;;;5.16;98.64
20394;BME280;10356;50.544;9.642;2023-12-20T10:36:51;98196.63;;;5.16;100.00
20394;BME280;10356;50.544;9.642;2023-12-20T10:39:20;98196.94;;;5.26;98.94
20394;BME280;10356;50.544;9.642;2023-12-20T10:41:47;98203.13;;;5.23;98.92
20394;BME280;10356;50.544;9.642;2023-12-20T10:44:14;98201.75;;;5.32;97.81
20394;BME280;10356;50.544;9.642;2023-12-20T10:46:41;98194.59;;;5.37;97.16
20394;BME280;10356;50.544;9.642;2023-12-20T10:49:15;98196.72;;;5.44;97.06
20394;BME280;10356;50.544;9.642;2023-12-20T10:51:44;98193.59;;;5.39;97.85
20394;BME280;10356;50.544;9.642;2023-12-20T10:54:11;98186.59;;;5.41;98.11
20394;BME280;10356;50.544;9.642;2023-12-20T10:56:39;98189.16;;;5.41;98.55
20394;BME280;10356;50.544;9.642;2023-12-20T10:59:07;98191.56;;;5.44;99.17
20394;BME280;10356;50.544;9.642;2023-12-20T11:01:37;98182.56;;;5.51;98.99
20394;BME280;10356;50.544;9.642;2023-12-20T11:04:08;98167.22;;;5.48;97.98
20394;BME280;10356;50.544;9.642;2023-12-20T11:06:45;98169.78;;;5.48;98.26
20394;BME280;10356;50.544;9.642;2023-12-20T11:09:18;98176.56;;;5.65;97.32
20394;BME280;10356;50.544;9.642;2023-12-20T11:11:58;98174.47;;;5.71;97.99
20394;BME280;10356;50.544;9.642;2023-12-20T11:14:29;98175.94;;;5.75;97.17
20394;BME280;10356;50.544;9.642;2023-12-20T11:17:07;98168.97;;;5.62;96.77
20394;BME280;10356;50.544;9.642;2023-12-20T11:19:36;98166.31;;;5.63;96.81
20394;BME280;10356;50.544;9.642;2023-12-20T11:22:03;98165.66;;;5.60;97.68
20394;BME280;10356;50.544;9.642;2023-12-20T11:24:31;98167.78;;;5.53;97.40
20394;BME280;10356;50.544;9.642;2023-12-20T11:26:59;98170.88;;;5.44;98.12
20394;BME280;10356;50.544;9.642;2023-12-20T11:29:33;98165.91;;;5.41;98.55
20394;BME280;10356;50.544;9.642;2023-12-20T11:32:02;98167.94;;;5.50;98.37
20394;BME280;10356;50.544;9.642;2023-12-20T11:34:31;98166.84;;;5.54;98.41
20394;BME280;10356;50.544;9.642;2023-12-20T11:36:59;98160.47;;;5.60;98.14
20394;BME280;10356;50.544;9.642;2023-12-20T11:39:26;98154.03;;;5.67;97.62
20394;BME280;10356;50.544;9.642;2023-12-20T11:41:54;98163.81;;;5.62;96.99
20394;BME280;10356;50.544;9.642;2023-12-20T11:44:23;98166.22;;;5.65;96.67
20394;BME280;10356;50.544;9.642;2023-12-20T11:46:51;98156.72;;;5.65;97.13
20394;BME280;10356;50.544;9.642;2023-12-20T11:49:23;98165.97;;;5.69;97.31
20394;BME280;10356;50.544;9.642;2023-12-20T11:51:49;98163.91;;;5.74;97.44
20394;BME280;10356;50.544;9.642;2023-12-20T11:54:16;98162.06;;;5.76;97.29
20394;BME280;10356;50.544;9.642;2023-12-20T11:56:42;98156.75;;;5.79;97.50
20394;BME280;10356;50.544;9.642;2023-12-20T11:59:09;98153.22;;;5.80;97.75
20394;BME280;10356;50.544;9.642;2023-12-20T12:01:37;98159.13;;;5.82;97.37
20394;BME280;10356;50.544;9.642;2023-12-20T12:04:04;98148.41;;;5.74;97.68
20394;BME280;10356;50.544;9.642;2023-12-20T12:06:31;98148.59;;;5.71;97.63
20394;BME280;10356;50.544;9.642;2023-12-20T12:08:58;98151.56;;;5.79;98.17
20394;BME280;10356;50.544;9.642;2023-12-20T12:11:24;98151.38;;;5.82;98.39
20394;BME280;10356;50.544;9.642;2023-12-20T12:13:51;98154.72;;;5.84;97.99
20394;BME280;10356;50.544;9.642;2023-12-20T12:16:19;98165.91;;;5.85;97.66
20394;BME280;10356;50.544;9.642;2023-12-20T12:18:55;98151.22;;;5.85;98.38
20394;BME280;10356;50.544;9.642;2023-12-20T12:21:21;98149.38;;;5.87;99.26
20394;BME280;10356;50.544;9.642;2023-12-20T12:23:48;98143.84;;;5.93;98.86
20394;BME280;10356;50.544;9.642;2023-12-20T12:26:14;98145.59;;;5.93;98.39
20394;BME280;10356;50.544;9.642;2023-12-20T12:28:41;98144.22;;;5.87;98.67
20394;BME280;10356;50.544;9.642;2023-12-20T12:31:09;98149.28;;;5.89;98.52
20394;BME280;10356;50.544;9.642;2023-12-20T12:33:40;98144.97;;;5.89;98.97
20394;BME280;10356;50.544;9.642;2023-12-20T12:36:08;98139.59;;;5.92;99.18
20394;BME280;10356;50.544;9.642;2023-12-20T12:38:35;98139.22;;;5.99;99.69
20394;BME280;10356;50.544;9.642;2023-12-20T12:41:01;98126.13;;;5.87;99.05
20394;BME280;10356;50.544;9.642;2023-12-20T12:43:28;98128.97;;;5.97;98.54
20394;BME280;10356;50.544;9.642;2023-12-20T12:45:54;98117.50;;;6.01;98.99
20394;BME280;10356;50.544;9.642;2023-12-20T12:48:21;98119.25;;;6.01;98.42
20394;BME280;10356;50.544;9.642;2023-12-20T12:50:47;98111.34;;;6.04;97.98
20394;BME280;10356;50.544;9.642;2023-12-20T12:53:18;98114.47;;;5.94;97.04
20394;BME280;10356;50.544;9.642;2023-12-20T12:55:44;98118.41;;;6.00;97.62
20394;BME280;10356;50.544;9.642;2023-12-20T12:58:11;98098.78;;;5.98;97.43
20394;BME280;10356;50.544;9.642;2023-12-20T13:00:38;98097.34;;;6.06;97.58
20394;BME280;10356;50.544;9.642;2023-12-20T13:03:04;98091.81;;;6.12;97.43